Latest Weather Observations for Kingscote

IDS60801

Issued at 7:31 am CDT Wednesday 28 January 2015 (issued every 30 minutes, with the page automatically refreshed every 10 minutes)

About weather observations | Map of weather stations | Latest weather observations for SA | Other Formats
Station Details ID: 022841 Name: KINGSCOTE AERO Lat: -35.71 Lon: 137.52 Height: 6.23 m
Data from the previous 72 hours. | See also: Recent months at Kingscote
Date/Time
CDT
Temp
°C
App
Temp
°C
Dew
Point
Rel
Hum
%
Delta-T
°C
Wind Press
QNH
hPa
Press
MSL
hPa
Rain
since 9 am
mm
Dir
 
Spd
km/h
Gust
km/h
Spd
kts
Gust
kts
28/07:30am 16.1 10.7 7.8 58 4.2 SE 26 39 14 21 1019.1 1019.1 0.0
28/07:00am 15.9 10.2 8.2 60 3.9 SE 28 35 15 19 1018.8 1018.8 0.0
28/06:30am 15.9 10.0 7.7 58 4.1 SE 28 37 15 20 1018.4 1018.4 0.0
28/06:00am 15.9 10.9 8.2 60 3.9 ESE 24 35 13 19 1018.3 1018.3 0.0
28/05:30am 15.8 11.1 7.8 59 4.0 ESE 22 33 12 18 1018.1 1018.1 0.0
28/05:00am 15.9 11.4 8.6 62 3.7 SE 22 37 12 20 1017.9 1017.9 0.0
28/04:30am 15.3 11.2 7.8 61 3.7 ESE 19 26 10 14 1017.9 1017.9 0.0
28/04:00am 15.4 11.4 8.4 63 3.5 ESE 19 26 10 14 1017.9 1017.9 0.0
28/03:30am 15.1 10.6 8.6 65 3.3 SE 22 28 12 15 1018.1 1018.1 0.0
28/03:00am 15.3 10.8 9.9 70 2.8 SE 24 32 13 17 1018.2 1018.2 0.0
28/02:30am 14.9 10.7 8.4 65 3.3 SE 20 28 11 15 1018.5 1018.5 0.0
28/02:00am 14.8 11.2 8.5 66 3.2 SE 17 26 9 14 1018.6 1018.6 0.0
28/01:30am 15.9 10.3 8.6 62 3.7 SE 28 37 15 20 1019.1 1019.1 0.0
28/01:00am 15.5 11.0 8.7 64 3.5 SE 22 32 12 17 1019.3 1019.3 0.0
28/12:30am 15.9 11.7 9.6 66 3.3 SSE 22 32 12 17 1019.5 1019.5 0.0
28/12:00am 15.4 10.6 7.4 59 3.9 SSE 22 30 12 16 1019.7 1019.7 0.0
 
Date/Time
CDT
Temp
°C
App
Temp
°C
Dew
Point
Rel
Hum
%
Delta-T
°C
Wind Press
QNH
hPa
Press
MSL
hPa
Rain
since 9 am
mm
Dir
 
Spd
km/h
Gust
km/h
Spd
kts
Gust
kts
27/11:30pm 15.9 10.7 7.4 57 4.2 SSE 24 35 13 19 1019.7 1019.7 0.0
27/11:00pm 16.5 11.2 8.5 59 4.1 SE 26 33 14 18 1020.0 1020.0 0.0
27/10:30pm 16.4 11.7 7.9 57 4.3 SSE 22 33 12 18 1020.0 1020.0 0.0
27/10:00pm 16.5 10.6 7.7 56 4.4 SE 28 41 15 22 1019.8 1019.8 0.0
27/09:30pm 16.3 11.2 7.8 57 4.3 SSE 24 39 13 21 1019.6 1019.6 0.0
27/09:00pm 16.2 11.5 9.2 63 3.6 SSE 24 35 13 19 1019.4 1019.4 0.0
27/08:30pm 16.5 10.7 9.4 63 3.7 SE 30 37 16 20 1019.2 1019.2 0.0
27/08:00pm 16.7 11.3 9.4 62 3.8 SSE 28 35 15 19 1019.0 1019.0 0.0
27/07:30pm 16.8 10.6 9.2 61 3.9 SE 32 39 17 21 1018.7 1018.7 0.0
27/07:00pm 17.9 12.3 10.0 60 4.2 SSE 30 43 16 23 1018.8 1018.8 0.0
27/06:30pm 17.5 11.4 9.9 61 4.0 SSE 32 41 17 22 1018.5 1018.5 0.0
27/06:00pm 17.8 12.2 8.9 56 4.6 SSE 28 39 15 21 1018.6 1018.6 0.0
27/05:30pm 18.3 12.3 8.8 54 4.9 SE 30 41 16 22 1018.6 1018.6 0.0
27/05:00pm 18.2 11.4 6.7 47 5.7 SSE 32 41 17 22 1018.4 1018.4 0.0
27/04:30pm 18.5 11.8 7.3 48 5.6 SSE 32 43 17 23 1018.4 1018.4 0.0
27/04:00pm 19.0 12.2 6.8 45 6.1 SSE 32 43 17 23 1018.4 1018.4 0.0
27/03:30pm 20.0 14.0 8.7 48 5.9 SE 30 39 16 21 1018.4 1018.4 0.0
27/03:00pm 19.2 13.3 7.6 47 5.9 SSE 28 37 15 20 1018.5 1018.5 0.0
27/02:30pm 19.9 14.0 7.6 45 6.3 SSE 28 37 15 20 1018.6 1018.6 0.0
27/02:00pm 20.4 14.5 7.4 43 6.7 SE 28 39 15 21 1018.6 1018.6 0.0
27/01:30pm 20.1 15.1 6.4 41 6.9 SE 22 33 12 18 1018.7 1018.7 0.0
27/01:00pm 19.8 14.2 7.2 44 6.4 SSE 26 33 14 18 1019.1 1019.1 0.0
27/12:30pm 19.8 14.1 6.9 43 6.5 SSE 26 37 14 20 1019.3 1019.3 0.0
27/12:00pm 20.1 15.0 7.5 44 6.4 SSE 24 35 13 19 1019.4 1019.4 0.0
27/11:30am 18.8 13.6 7.3 47 5.8 SSE 24 35 13 19 1019.5 1019.5 0.0
27/11:00am 19.2 14.4 7.3 46 6.0 SSE 22 33 12 18 1019.4 1019.4 0.0
27/10:30am 19.0 13.6 6.5 44 6.2 SSE 24 35 13 19 1019.4 1019.4 0.0
27/10:00am 19.1 13.8 6.9 45 6.1 SSE 24 33 13 18 1019.5 1019.5 0.0
27/09:30am 18.4 14.0 7.2 48 5.6 SE 20 30 11 16 1019.8 1019.8 0.0
27/09:00am 17.7 13.1 6.3 47 5.6 SE 20 30 11 16 1019.7 1019.7 0.0
27/08:30am 16.8 12.5 6.9 52 4.9 SE 19 28 10 15 1019.6 1019.6 0.0
27/08:00am 16.1 13.8 7.3 56 4.4 SSE 9 11 5 6 1019.5 1019.5 0.0
27/07:30am 14.9 12.5 7.2 60 3.8 S 9 11 5 6 1019.3 1019.3 0.0
27/07:00am 13.9 11.8 6.7 62 3.5 SSW 7 9 4 5 1019.0 1019.0 0.0
27/06:30am 14.2 12.1 6.8 61 3.6 SSE 7 7 4 4 1018.8 1018.8 0.0
27/06:00am 14.5 12.1 6.8 60 3.7 S 9 13 5 7 1018.5 1018.5 0.0
27/05:30am 14.4 12.1 7.5 63 3.4 SSE 9 11 5 6 1018.2 1018.2 0.0
27/05:00am 14.3 11.6 7.4 63 3.4 S 11 13 6 7 1018.1 1018.1 0.0
27/04:30am 14.1 11.5 7.6 65 3.2 S 11 17 6 9 1018.0 1018.0 0.0
27/04:00am 13.8 10.7 7.1 64 3.3 SSW 13 15 7 8 1018.0 1018.0 0.0
27/03:30am 14.0 10.8 6.8 62 3.5 SSW 13 15 7 8 1018.1 1018.1 0.0
27/03:00am 14.7 11.5 6.8 59 3.8 S 13 17 7 9 1018.3 1018.3 0.0
27/02:30am 14.3 11.2 7.1 62 3.5 S 13 15 7 8 1018.5 1018.5 0.0
27/02:00am 14.3 10.8 7.1 62 3.5 S 15 19 8 10 1018.7 1018.7 0.0
27/01:30am 13.9 10.8 7.4 65 3.2 S 13 15 7 8 1019.0 1019.0 0.0
27/01:00am 12.7 10.4 7.4 70 2.6 S 9 9 5 5 1019.2 1019.2 0.0
27/12:30am 11.5 9.1 7.0 74 2.1 SSW 9 11 5 6 1019.4 1019.4 0.0
27/12:00am 11.0 8.8 6.2 72 2.2 SSW 7 9 4 5 1019.6 1019.6 0.0
 
Date/Time
CDT
Temp
°C
App
Temp
°C
Dew
Point
Rel
Hum
%
Delta-T
°C
Wind Press
QNH
hPa
Press
MSL
hPa
Rain
since 9 am
mm
Dir
 
Spd
km/h
Gust
km/h
Spd
kts
Gust
kts
26/11:30pm 11.3 8.8 6.4 72 2.3 SSW 9 11 5 6 1019.5 1019.5 0.0
26/11:00pm 11.1 8.1 6.0 71 2.4 SSW 11 11 6 6 1019.6 1019.6 0.0
26/10:30pm 11.7 8.7 6.0 68 2.7 SSW 11 11 6 6 1019.6 1019.6 0.0
26/10:00pm 12.2 9.2 6.0 66 2.9 SSW 11 13 6 7 1019.6 1019.6 0.0
26/09:30pm 13.2 9.9 6.3 63 3.3 S 13 15 7 8 1019.4 1019.4 0.0
26/09:00pm 14.6 10.9 6.4 58 3.9 S 15 19 8 10 1019.2 1019.2 0.0
26/08:30pm 15.7 11.1 6.4 54 4.5 SSE 20 26 11 14 1019.1 1019.1 0.0
26/08:00pm 16.2 11.6 6.6 53 4.7 SSE 20 28 11 15 1019.1 1019.1 0.0
26/07:30pm 16.7 11.8 6.8 52 4.9 SE 22 30 12 16 1019.0 1019.0 0.0
26/07:00pm 17.0 11.5 7.4 53 4.8 SE 26 32 14 17 1018.8 1018.8 0.0
26/06:30pm 17.4 12.3 7.5 52 5.0 SSE 24 32 13 17 1018.5 1018.5 0.0
26/06:00pm 17.5 11.9 7.0 50 5.2 SSE 26 39 14 21 1018.4 1018.4 0.0
26/05:30pm 17.7 12.8 6.9 49 5.4 SSE 22 32 12 17 1018.3 1018.3 0.0
26/05:00pm 18.1 12.4 6.9 48 5.6 SSE 26 35 14 19 1018.3 1018.3 0.0
26/04:30pm 18.2 12.4 6.4 46 5.8 SSE 26 35 14 19 1018.3 1018.3 0.0
26/04:00pm 18.7 13.4 6.9 46 5.9 SSE 24 35 13 19 1018.1 1018.1 0.0
26/03:30pm 18.9 13.6 6.7 45 6.1 SE 24 35 13 19 1018.3 1018.3 0.0
26/03:00pm 19.2 13.9 7.0 45 6.1 SSE 24 33 13 18 1018.5 1018.5 0.0
26/02:30pm 18.7 13.5 7.2 47 5.8 SSE 24 32 13 17 1018.5 1018.5 0.0
26/02:00pm 20.3 15.8 7.0 42 6.8 SSE 20 30 11 16 1018.5 1018.5 0.0
26/01:30pm 18.7 14.6 6.2 44 6.2 SSE 17 28 9 15 1018.7 1018.7 0.0
26/01:00pm 19.1 14.3 5.6 41 6.6 SE 20 32 11 17 1018.5 1018.5 0.0
26/12:30pm 18.9 14.8 6.1 43 6.3 SE 17 28 9 15 1018.8 1018.8 0.0
26/12:00pm 18.5 14.0 6.0 44 6.1 SE 19 26 10 14 1018.8 1018.8 0.0
26/11:30am 18.5 13.8 5.0 41 6.5 S 19 30 10 16 1018.9 1018.9 0.0
26/11:00am 17.6 12.7 4.9 43 6.1 SSE 20 28 11 15 1019.0 1019.0 0.0
26/10:30am 18.2 13.1 5.8 44 6.0 SSE 22 35 12 19 1019.1 1019.1 0.0
26/10:00am 18.3 14.1 5.8 44 6.1 SSE 17 26 9 14 1019.1 1019.1 0.0
26/09:30am 16.9 13.7 7.0 52 4.9 SSE 13 19 7 10 1019.4 1019.4 0.0
26/09:00am 15.9 13.3 7.9 59 4.0 S 11 13 6 7 1019.5 1019.5 0.2
26/08:30am 15.2 13.3 9.1 67 3.1 SSW 9 11 5 6 1019.4 1019.4 0.2
26/08:00am 14.4 14.6 10.4 77 2.1 CALM 0 0 0 0 1019.1 1019.1 0.2
26/07:30am 13.9 14.1 10.7 81 1.7 CALM 0 0 0 0 1018.9 1018.9 0.2
26/07:00am 13.4 13.5 10.2 81 1.7 CALM 0 0 0 0 1018.5 1018.5 0.2
26/06:30am 13.5 12.8 9.9 79 1.8 S 4 9 2 5 1018.2 1018.2 0.2
26/06:00am 13.6 11.6 10.0 79 1.9 S 11 17 6 9 1018.0 1018.0 0.2
26/05:30am 13.1 11.1 10.3 83 1.4 SW 11 15 6 8 1017.7 1017.7 0.2
26/05:00am 12.8 11.3 10.7 87 1.1 WSW 9 11 5 6 1017.2 1017.2 0.2
26/04:30am 12.8 11.0 10.7 87 1.1 WSW 11 11 6 6 1016.9 1016.9 0.2
26/04:00am 13.2 11.8 10.9 86 1.2 W 9 9 5 5 1016.8 1016.8 0.2
26/03:30am 13.4 12.3 10.8 84 1.4 NW 7 9 4 5 1016.8 1016.8 0.2
26/03:00am 13.2 12.2 10.9 86 1.2 W 7 7 4 4 1016.6 1016.6 0.2
26/02:30am 12.9 11.8 10.8 87 1.1 WSW 7 9 4 5 1016.6 1016.6 0.2
26/02:00am 13.0 12.1 10.5 85 1.3 WNW 6 7 3 4 1016.9 1016.9 0.2
26/01:30am 13.0 11.6 10.9 87 1.1 W 9 9 5 5 1016.8 1016.8 0.2
26/01:00am 13.1 12.3 11.0 87 1.1 WSW 6 9 3 5 1017.1 1017.1 0.2
26/12:30am 13.3 12.3 11.0 86 1.2 S 7 11 4 6 1017.2 1017.2 0.2
26/12:12am 13.0 10.9 11.1 88 1.0 SSW 13 19 7 10 1017.3 1017.3 0.2
26/12:00am 13.1 9.8 11.5 90 0.8 SSW 20 30 11 16 1017.6 1017.6 0.2
 
Date/Time
CDT
Temp
°C
App
Temp
°C
Dew
Point
Rel
Hum
%
Delta-T
°C
Wind Press
QNH
hPa
Press
MSL
hPa
Rain
since 9 am
mm
Dir
 
Spd
km/h
Gust
km/h
Spd
kts
Gust
kts
25/11:54pm 13.3 9.2 11.5 89 1.0 SSW 24 32 13 17 1017.6 1017.6 0.2
25/11:30pm 14.8 11.2 10.6 76 2.2 SW 20 28 11 15 1017.3 1017.3 0.0
25/11:00pm 15.2 12.3 8.0 62 3.6 SSW 13 17 7 9 1017.1 1017.1 0.0
25/10:30pm 15.1 13.0 9.7 70 2.8 S 11 15 6 8 1017.1 1017.1 0.0
25/10:00pm 15.1 12.3 9.9 71 2.7 S 15 20 8 11 1016.9 1016.9 0.0
25/09:30pm 15.4 10.8 9.7 69 3.0 SSW 24 33 13 18 1016.7 1016.7 0.0
25/09:00pm 16.0 11.9 8.0 59 4.0 SSW 19 26 10 14 1016.3 1016.3 0.0
25/08:30pm 15.7 10.6 7.5 58 4.1 SSW 24 33 13 18 1016.1 1016.1 0.0
25/08:00pm 16.8 10.8 7.2 53 4.8 S 28 37 15 20 1015.8 1015.8 0.0
25/07:30pm 17.7 12.5 7.2 50 5.3 SSW 24 37 13 20 1015.6 1015.6 0.0
25/07:00pm 17.3 11.5 7.9 54 4.8 SSW 28 39 15 21 1015.3 1015.3 0.0
25/06:30pm 18.1 11.6 6.3 46 5.8 S 30 44 16 24 1014.9 1014.9 0.0
25/06:00pm 18.5 11.7 7.0 47 5.8 SSW 32 43 17 23 1014.9 1014.9 0.0
25/05:30pm 19.4 12.3 6.2 42 6.6 SSW 33 48 18 26 1014.7 1014.7 0.0
25/05:00pm 18.7 11.1 5.9 43 6.3 SSW 35 46 19 25 1014.8 1014.8 0.0
25/04:30pm 21.1 14.1 6.2 38 7.5 SSW 32 43 17 23 1014.5 1014.5 0.0
25/04:00pm 20.6 13.2 3.8 33 8.0 SSW 32 46 17 25 1014.7 1014.7 0.0
25/03:30pm 20.4 12.7 3.6 33 8.0 SSW 33 46 18 25 1014.5 1014.5 0.0
25/03:00pm 22.2 15.2 4.3 31 8.7 SW 30 48 16 26 1014.4 1014.4 0.0
25/02:46pm 22.1 14.8 4.6 32 8.6 SW 32 48 17 26 1014.5 1014.5 0.0
25/02:30pm 21.6 14.7 6.3 37 7.7 SSW 32 46 17 25 1014.7 1014.7 0.0
25/02:03pm 22.3 16.3 6.9 37 7.9 SSW 28 46 15 25 1014.6 1014.6 0.0
25/02:00pm 20.1 14.3 6.4 41 6.9 SSW 26 39 14 21 1014.6 1014.6 0.0
25/01:30pm 20.5 15.5 6.4 40 7.1 SSW 22 35 12 19 1014.9 1014.9 0.0
25/01:00pm 19.6 14.0 7.0 44 6.4 SW 26 39 14 21 1015.0 1015.0 0.0
25/12:30pm 19.0 13.5 5.8 42 6.5 SW 24 35 13 19 1015.0 1015.0 0.0
25/12:00pm 19.4 13.4 5.1 39 7.0 SW 26 35 14 19 1014.9 1014.9 0.0
25/11:30am 19.0 12.9 6.5 44 6.2 SW 28 37 15 20 1014.9 1014.9 0.0
25/11:00am 18.8 12.0 4.9 40 6.7 SW 30 39 16 21 1014.8 1014.8 0.0
25/10:30am 19.0 12.1 2.8 34 7.5 SSW 28 39 15 21 1014.4 1014.4 0.0
25/10:00am 18.0 11.5 4.6 41 6.4 SW 28 39 15 21 1014.4 1014.4 0.0
25/09:30am 17.0 11.8 7.4 53 4.8 SW 24 32 13 17 1014.3 1014.3 0.0
25/09:00am 15.9 12.0 7.1 56 4.3 W 17 22 9 12 1014.2 1014.2 0.2
25/08:30am 15.5 11.9 6.8 56 4.3 WSW 15 20 8 11 1013.7 1013.7 0.2
25/08:00am 14.1 10.8 8.1 67 3.0 W 15 19 8 10 1013.5 1013.5 0.2

Other Formats:

Comma delimited format used in spreadsheet applications
http://www.bom.gov.au/fwo/IDS60801/IDS60801.95807.axf

JavaScript Object Notation format (JSON) in row-major order
http://www.bom.gov.au/fwo/IDS60801/IDS60801.95807.json